Airfield :
LOGIN :

Register | Disclaimer

   EN    FR    IT 

 










Legend :    VFR   Marginal VFR   IFR   Intensive IFR   Very Intensive IFR
Visi :
Ceiling :
>= 8 km
>= 3000ft
5 to 8 km
1000 to 3000 ft
1500m to 5 km
500 to 1000 ft
800 to 1500m
200 to 500 ft
< 800m
< 200 ft
Symbols :   Thunderstorms  Fog  Heavy snow  Heavy precipitations  Wind > 20 kt
SIGMETs :     Misc.  Thunderstorms  Icing  Turbulence  Mountain Waves  Volcanic Ashes







- Airport Elevation : 357 ft
- IATA code : TUF
- Download approach charts


LFOT - Tours

CURRENT METAR :
  • 201530Z AUTO 04009KT 360V070 CAVOK 24/08 Q1021 TEMPO 07020G35KT 2500 TSRAGS BKN040CB

EXPIRED METARs :
  • 201500Z AUTO 04008KT 360V080 CAVOK 24/08 Q1022 TEMPO 07020G35KT 2500 TSRAGS BKN040CB
  • 201430Z AUTO 05009KT 360V080 9999 ///CB 24/09 Q1022 TEMPO 07020G35KT 2500 TSRAGS
  • 201400Z AUTO 07009KT 030V100 CAVOK 24/10 Q1023 TEMPO 07020G35KT 2500 TSRAGS BKN040CB
  • 201330Z AUTO 07010KT CAVOK 23/12 Q1023 TEMPO 07020G35KT 2500 TSRAGS BKN040CB
  • 201300Z AUTO 05007KT 340V110 CAVOK 24/12 Q1023 TEMPO 07020G35KT 2500 TSRAGS BKN040CB

TAF AMD TAF LFOT
Valid from the 20 at 13:00 until the 21 at 12:00 UTC


201348Z 2013/2112 06008KT CAVOK
TEMPO 2013/2020 06010G20KT -SHRA SCT050CB BKN060
PROB40
TEMPO 2014/2018 07020G35KT 2500 TSRAGS BKN040CB
No reported NOTAMs for that airfield.
2 SIGMETs reported for the Paris FIR (LFFF) :
 
SIGMET 2  cancelation
LFFF SIGMET 3 VALID 201545/201700 LFPW
LFFF PARIS FIR/UIR CNL SIGMET 2 201500/201700=
SIGMET 2  CANCELED :
Frequent thunderstorms
LFFF SIGMET 2 VALID 201500/201700 LFPW
LFFF PARIS FIR/UIR FRQ TS OBS WI N4630 E00330 - N4630 E00300 - N4715 E00200 - N4715 E00245 - N4630 E00330 TOP FL350 MOV SW 20KT NC=



MET'MAP, your aeronautical weather chart ! - Copyright ORBIFLY December 2007 - Disclaimer

ORBIFLY MET'MAP TEAM :

Programming & Development : Alexandra Zaïnal
Concept & Development : Baudouin d'Aumeries
Co-Development & Prog : Marc-Olivier Méhu
Technical & hardware support : Manuel Goepfert

Contact : metmap@orbifly.com




SOURCES & CREDITS :

   NOAA